Time;durP1;ratioP1;P1;durP2;ratioP2;P2;SDS_P1;SDS_P2;PMS_P1;PMS_P2;Temp;Humidity;BMP_temperature;BMP_pressure;BME280_temperature;BME280_humidity;BME280_pressure;Samples;Min_cycle;Max_cycle;Signal;HPM_P1;HPM_P2
2023/06/03 00:01:54;;;;;;;15.43;6.45;;;;;;;12.74;93.87;102021.13;5010540;28;20066;-73
2023/06/03 00:04:21;;;;;;;12.90;5.95;;;;;;;12.74;93.71;102015.78;5010485;28;20069;-73
2023/06/03 00:06:47;;;;;;;12.70;6.75;;;;;;;12.69;94.06;102014.47;5010438;28;20021;-73
2023/06/03 00:09:12;;;;;;;18.95;6.95;;;;;;;12.63;94.43;102009.84;5010426;28;20088;-73
2023/06/03 00:11:38;;;;;;;14.00;8.13;;;;;;;12.67;93.96;102019.16;4992630;28;20038;-73
2023/06/03 00:14:04;;;;;;;18.25;6.80;;;;;;;12.66;93.75;102016.69;5010526;28;20044;-73
2023/06/03 00:16:32;;;;;;;14.05;6.13;;;;;;;12.64;93.57;102019.53;5010163;28;20045;-73
2023/06/03 00:18:57;;;;;;;12.02;6.63;;;;;;;12.62;93.52;102016.19;5009961;28;20607;-73
2023/06/03 00:21:23;;;;;;;16.42;6.88;;;;;;;12.59;93.42;102016.56;5010184;28;20045;-73
2023/06/03 00:23:49;;;;;;;12.55;6.68;;;;;;;12.60;93.45;102022.75;5010110;28;20040;-73
2023/06/03 00:26:14;;;;;;;15.48;6.45;;;;;;;12.57;93.87;102021.25;5010187;28;20121;-73
2023/06/03 00:28:40;;;;;;;14.10;6.90;;;;;;;12.45;93.38;102004.81;5010166;28;20026;-73
2023/06/03 00:31:05;;;;;;;13.70;6.25;;;;;;;12.48;93.43;102011.66;5010073;28;20161;-73
2023/06/03 00:33:31;;;;;;;14.90;6.30;;;;;;;12.47;93.50;102005.47;5009979;28;20525;-73
2023/06/03 00:35:56;;;;;;;26.35;6.65;;;;;;;12.44;93.49;102010.34;5009912;28;20034;-73
2023/06/03 00:38:21;;;;;;;15.95;6.47;;;;;;;12.50;93.68;102021.16;5009739;28;20030;-73
2023/06/03 00:40:47;;;;;;;17.98;7.68;;;;;;;12.47;93.63;102021.53;4992080;28;20061;-73
2023/06/03 00:43:12;;;;;;;13.30;5.78;;;;;;;12.38;93.48;102006.53;5009797;28;20698;-73
2023/06/03 00:45:38;;;;;;;11.50;5.70;;;;;;;12.30;94.05;101995.91;5009175;28;20030;-73
2023/06/03 00:48:03;;;;;;;14.10;7.07;;;;;;;12.37;94.06;102020.13;5009595;28;20029;-73
2023/06/03 00:50:29;;;;;;;13.13;5.85;;;;;;;12.32;94.10;102012.63;5009770;28;20048;-73
2023/06/03 00:52:54;;;;;;;13.80;5.85;;;;;;;12.30;94.32;102020.00;5009671;28;20026;-73
2023/06/03 00:55:20;;;;;;;14.88;5.95;;;;;;;12.27;94.35;102015.00;5009740;28;20033;-73
2023/06/03 00:57:45;;;;;;;15.18;6.78;;;;;;;12.26;94.43;102014.19;4992163;28;20051;-73
2023/06/03 01:00:11;;;;;;;17.98;6.35;;;;;;;12.18;94.51;102006.22;5009657;28;20030;-73
2023/06/03 01:02:39;;;;;;;12.38;6.15;;;;;;;12.17;95.00;102014.41;5009672;28;20037;-73
2023/06/03 01:05:04;;;;;;;12.32;6.05;;;;;;;12.22;95.07;102012.03;4991964;28;20029;-73
2023/06/03 01:07:46;;;;;;;12.10;5.80;;;;;;;12.21;95.21;102015.72;5009474;28;20385;-73
2023/06/03 01:10:24;;;;;;;;;;;;;;;12.22;93.54;102022.72;5010146;28;20017;-73
2023/06/03 01:13:01;;;;;;;12.38;5.93;;;;;;;12.13;95.43;102021.97;4991962;28;20311;-73
2023/06/03 01:15:29;;;;;;;11.98;6.25;;;;;;;12.12;95.22;102022.97;5009561;28;20080;-73
2023/06/03 01:17:59;;;;;;;15.38;6.50;;;;;;;12.07;95.27;102010.13;5009461;28;20509;-73
2023/06/03 01:20:28;;;;;;;14.40;6.88;;;;;;;12.09;95.39;102009.94;5009519;28;20022;-73
2023/06/03 01:23:17;;;;;;;11.63;5.38;;;;;;;12.07;95.64;102009.28;5009411;28;20148;-73
2023/06/03 01:25:43;;;;;;;11.63;5.60;;;;;;;12.06;95.34;102007.63;5009431;28;20350;-73
2023/06/03 01:28:08;;;;;;;14.27;5.50;;;;;;;12.05;95.21;102009.50;4991722;28;20046;-73
2023/06/03 01:30:35;;;;;;;14.85;6.40;;;;;;;12.04;95.58;102010.47;4991864;28;20036;-73
2023/06/03 01:33:03;;;;;;;15.27;6.43;;;;;;;12.10;95.03;102008.94;4991907;28;20045;-73
2023/06/03 01:35:30;;;;;;;11.40;5.18;;;;;;;12.06;95.30;102008.47;5009424;28;20025;-73
2023/06/03 01:37:56;;;;;;;13.73;6.03;;;;;;;12.05;95.43;102017.50;5009355;28;20034;-73
2023/06/03 01:40:21;;;;;;;13.75;5.70;;;;;;;12.03;95.79;102016.84;5009208;28;20040;-73
2023/06/03 01:42:47;;;;;;;15.98;6.07;;;;;;;11.96;96.04;102023.91;4991801;28;20026;-73
2023/06/03 01:45:12;;;;;;;12.43;5.40;;;;;;;11.95;95.84;102034.78;5009276;28;20026;-73
2023/06/03 01:47:38;;;;;;;12.90;6.45;;;;;;;11.88;96.21;102036.50;5009102;28;20080;-73
2023/06/03 01:50:04;;;;;;;12.77;6.35;;;;;;;11.86;96.26;102025.97;4991620;28;20029;-73
2023/06/03 01:52:29;;;;;;;11.50;5.95;;;;;;;11.81;96.94;102030.97;5009223;28;20030;-73
2023/06/03 01:54:55;;;;;;;20.00;6.97;;;;;;;11.74;96.85;102022.03;4991570;28;20041;-73
2023/06/03 01:57:20;;;;;;;12.20;6.68;;;;;;;11.71;97.73;102027.69;4994754;28;20018;-73
2023/06/03 01:59:46;;;;;;;12.75;6.30;;;;;;;11.71;98.28;102028.53;4995216;28;20056;-73
2023/06/03 02:02:11;;;;;;;13.60;6.25;;;;;;;11.73;98.30;102033.69;5013019;28;20042;-74
2023/06/03 02:04:36;;;;;;;12.50;6.30;;;;;;;11.76;97.91;102025.31;5012857;28;20489;-73
2023/06/03 02:07:02;;;;;;;16.48;6.05;;;;;;;11.79;97.85;102023.16;5012832;28;20116;-73
2023/06/03 02:09:29;;;;;;;11.68;5.57;;;;;;;11.77;97.97;102019.00;5012829;28;20037;-73
2023/06/03 02:11:59;;;;;;;12.93;6.63;;;;;;;11.74;98.33;102014.81;5012716;28;20553;-73
2023/06/03 02:14:26;;;;;;;9.43;5.82;;;;;;;11.74;98.42;102012.16;5012642;28;20022;-73
2023/06/03 02:16:52;;;;;;;16.67;5.13;;;;;;;11.65;98.42;102005.19;5012436;28;20120;-73
2023/06/03 02:19:20;;;;;;;10.10;5.68;;;;;;;11.69;98.74;102017.19;5012304;28;20061;-73
2023/06/03 02:21:47;;;;;;;10.07;6.28;;;;;;;11.67;98.74;102008.50;5012551;28;20403;-73
2023/06/03 02:24:16;;;;;;;11.98;5.90;;;;;;;11.68;98.72;102012.84;4994996;28;20033;-73
2023/06/03 02:26:50;;;;;;;10.95;5.78;;;;;;;11.64;98.47;102003.53;5012316;28;20030;-73
2023/06/03 02:29:27;;;;;;;12.25;6.65;;;;;;;11.63;99.07;102010.72;5012255;28;20036;-73
2023/06/03 02:31:53;;;;;;;15.35;8.05;;;;;;;11.63;99.13;102007.19;5012264;28;20029;-73
2023/06/03 02:34:19;;;;;;;12.25;7.00;;;;;;;11.62;98.64;102009.03;5012224;28;20034;-73
2023/06/03 02:36:46;;;;;;;11.10;5.85;;;;;;;11.57;98.68;102000.69;4994471;28;20034;-73
2023/06/03 02:39:12;;;;;;;8.75;5.38;;;;;;;11.62;98.29;102006.34;5012069;28;20455;-73
2023/06/03 02:41:38;;;;;;;11.95;6.68;;;;;;;11.64;98.17;102014.22;5012178;28;20459;-73
2023/06/03 02:44:04;;;;;;;11.90;5.60;;;;;;;11.66;98.26;102027.38;5012051;28;20500;-73
2023/06/03 02:46:30;;;;;;;10.48;5.78;;;;;;;11.63;98.22;102018.72;5011995;28;20029;-73
2023/06/03 02:48:56;;;;;;;10.70;5.75;;;;;;;11.63;98.12;102012.53;5011873;28;20033;-73
2023/06/03 02:51:21;;;;;;;11.70;6.13;;;;;;;11.61;97.85;102014.56;5011814;28;20033;-73
2023/06/03 02:53:47;;;;;;;11.63;5.53;;;;;;;11.58;97.95;102010.41;5011621;28;20033;-73
2023/06/03 02:56:12;;;;;;;11.68;6.05;;;;;;;11.56;98.25;102019.59;5011987;28;20034;-73
2023/06/03 02:58:39;;;;;;;11.93;5.65;;;;;;;11.55;97.92;102015.25;5011791;28;20030;-73
2023/06/03 03:01:05;;;;;;;13.60;5.60;;;;;;;11.53;98.06;102014.59;5011698;28;20030;-73
2023/06/03 03:03:36;;;;;;;10.82;5.63;;;;;;;11.50;97.63;102009.59;5011689;28;20034;-73
2023/06/03 03:06:03;;;;;;;14.38;5.88;;;;;;;11.53;97.60;102012.75;5011747;28;20038;-73
2023/06/03 03:08:29;;;;;;;11.38;4.60;;;;;;;11.53;97.74;102014.59;5010875;28;20045;-73
2023/06/03 03:10:55;;;;;;;14.10;6.38;;;;;;;11.50;97.74;102023.81;4994048;28;20500;-73
2023/06/03 03:13:20;;;;;;;11.73;5.25;;;;;;;11.45;97.75;102015.47;5011411;28;20076;-73
2023/06/03 03:15:46;;;;;;;9.48;5.38;;;;;;;11.48;97.53;102016.97;4993911;28;20065;-73
2023/06/03 03:18:11;;;;;;;11.77;5.82;;;;;;;11.49;97.33;102021.28;5011145;28;20062;-73
2023/06/03 03:20:36;;;;;;;13.48;6.75;;;;;;;11.46;97.52;102019.81;5011177;28;20473;-73
2023/06/03 03:23:02;;;;;;;10.38;5.28;;;;;;;11.38;97.32;102011.81;5011106;28;20037;-73
2023/06/03 03:25:28;;;;;;;10.02;5.70;;;;;;;11.43;97.49;102025.50;5011306;28;20048;-73
2023/06/03 03:27:53;;;;;;;12.68;5.88;;;;;;;11.36;97.61;102014.66;4993736;28;20030;-74
2023/06/03 03:30:19;;;;;;;10.40;5.20;;;;;;;11.40;97.22;102021.34;5011137;28;20116;-73
2023/06/03 03:32:44;;;;;;;9.57;4.90;;;;;;;11.39;97.08;102022.31;4977210;28;20042;-73
2023/06/03 03:35:14;;;;;;;12.55;5.18;;;;;;;11.36;97.46;102024.50;5011001;28;20042;-73
2023/06/03 03:37:40;;;;;;;12.82;5.32;;;;;;;11.34;96.92;102018.50;5010945;28;20026;-73
2023/06/03 03:40:21;;;;;;;12.60;6.05;;;;;;;11.32;97.36;102021.38;5011040;28;20029;-73
2023/06/03 03:42:56;;;;;;;12.13;5.63;;;;;;;11.29;97.20;102028.88;5010940;28;20100;-73
2023/06/03 03:45:29;;;;;;;13.77;7.50;;;;;;;11.26;96.90;102027.38;5010864;28;20029;-73
2023/06/03 03:48:00;;;;;;;8.43;5.07;;;;;;;11.22;96.86;102022.56;5011099;28;20034;-73
2023/06/03 03:50:26;;;;;;;11.88;5.88;;;;;;;11.29;96.44;102040.41;5010801;28;20613;-73
2023/06/03 03:52:51;;;;;;;12.13;5.93;;;;;;;11.19;96.87;102018.41;5010774;28;20061;-74
2023/06/03 03:55:16;;;;;;;12.02;5.55;;;;;;;11.26;96.30;102032.72;4992965;28;20285;-73
2023/06/03 03:57:42;;;;;;;10.70;4.47;;;;;;;11.30;96.33;102034.06;4993012;28;20072;-73
2023/06/03 04:00:09;;;;;;;11.13;5.28;;;;;;;11.31;96.32;102037.56;4992925;28;20559;-73
2023/06/03 04:02:42;;;;;;;9.23;5.13;;;;;;;11.33;95.79;102032.88;5010630;28;20045;-73
2023/06/03 04:05:14;;;;;;;11.13;4.82;;;;;;;11.23;95.96;102022.38;5010598;28;20029;-73
2023/06/03 04:07:40;;;;;;;11.30;5.68;;;;;;;11.32;95.98;102036.56;5010587;28;20099;-74
2023/06/03 04:10:09;;;;;;;9.70;5.10;;;;;;;11.38;95.64;102038.53;5010434;28;20476;-74
2023/06/03 04:12:36;;;;;;;13.20;5.32;;;;;;;11.39;95.28;102041.00;5010386;28;20125;-73
2023/06/03 04:15:03;;;;;;;9.57;5.03;;;;;;;11.38;95.54;102047.38;5010330;28;20077;-73
2023/06/03 04:17:30;;;;;;;13.00;4.80;;;;;;;11.28;95.62;102019.22;5010069;28;20038;-74
2023/06/03 04:19:56;;;;;;;12.27;5.43;;;;;;;11.37;95.57;102045.72;4991262;28;20107;-73
2023/06/03 04:22:24;;;;;;;8.30;4.47;;;;;;;11.38;95.14;102042.03;5010164;28;20030;-73
2023/06/03 04:24:59;;;;;;;13.85;6.13;;;;;;;11.43;94.95;102048.72;5010288;28;20073;-74
2023/06/03 04:27:25;;;;;;;7.63;4.05;;;;;;;11.44;94.35;102045.03;5010047;28;20037;-74
2023/06/03 04:29:50;;;;;;;13.43;5.00;;;;;;;11.50;93.76;102050.53;5010164;28;20433;-73
2023/06/03 04:32:16;;;;;;;9.35;4.97;;;;;;;11.54;93.04;102041.13;5010499;28;20385;-73
2023/06/03 04:34:54;;;;;;;9.30;4.30;;;;;;;11.61;92.78;102042.13;5010075;28;20038;-73
2023/06/03 04:37:21;;;;;;;8.95;4.45;;;;;;;11.67;92.52;102053.94;5009923;28;20108;-73
2023/06/03 04:39:46;;;;;;;10.98;4.50;;;;;;;11.70;90.75;102042.06;4992323;28;20096;-73
2023/06/03 04:42:12;;;;;;;11.15;5.65;;;;;;;11.78;90.66;102042.84;5010015;28;20543;-73
2023/06/03 04:44:41;;;;;;;9.43;5.03;;;;;;;11.83;90.73;102048.50;5009864;28;20500;-73
2023/06/03 04:47:10;;;;;;;7.65;5.28;;;;;;;11.90;90.58;102050.53;5009757;28;20072;-73
2023/06/03 04:49:39;;;;;;;9.70;4.20;;;;;;;11.93;88.97;102051.00;5009732;28;20612;-73
2023/06/03 04:52:09;;;;;;;8.10;4.07;;;;;;;11.98;86.90;102053.16;5009664;28;20076;-73
2023/06/03 04:54:36;;;;;;;8.50;4.28;;;;;;;12.04;87.75;102047.09;5009667;28;20366;-72
2023/06/03 04:57:01;;;;;;;7.10;4.50;;;;;;;12.10;86.98;102050.91;5009472;28;20034;-74
2023/06/03 04:59:27;;;;;;;7.28;4.03;;;;;;;12.15;87.23;102049.34;5009647;28;20461;-73
2023/06/03 05:01:52;;;;;;;8.60;4.30;;;;;;;12.20;87.19;102041.63;5009760;28;20037;-73
2023/06/03 05:04:19;;;;;;;10.95;4.90;;;;;;;12.32;85.59;102054.59;5009763;28;20022;-73
2023/06/03 05:06:46;;;;;;;8.00;4.35;;;;;;;12.40;85.30;102059.91;5009533;28;20038;-73
2023/06/03 05:09:12;;;;;;;10.32;4.25;;;;;;;12.44;83.89;102058.50;4992082;28;20026;-74
2023/06/03 05:11:38;;;;;;;8.82;3.78;;;;;;;12.45;83.26;102049.50;5009521;28;20052;-73
2023/06/03 05:14:03;;;;;;;7.55;4.57;;;;;;;12.55;82.58;102054.56;5009530;28;20395;-73
2023/06/03 05:16:28;;;;;;;12.15;5.43;;;;;;;12.59;82.00;102056.72;5009299;28;20083;-73
2023/06/03 05:18:54;;;;;;;6.95;3.40;;;;;;;12.68;80.25;102058.31;5009371;28;20504;-73
2023/06/03 05:21:20;;;;;;;11.15;4.43;;;;;;;12.73;79.91;102057.75;5009485;28;20054;-73
2023/06/03 05:23:45;;;;;;;8.05;3.72;;;;;;;12.82;78.93;102056.69;5009332;28;20032;-73
2023/06/03 05:26:12;;;;;;;9.18;4.45;;;;;;;12.90;78.80;102056.59;4992009;28;20132;-73
2023/06/03 05:28:37;;;;;;;5.70;3.25;;;;;;;12.96;78.15;102054.22;5009442;28;20030;-73
2023/06/03 05:31:02;;;;;;;5.78;3.67;;;;;;;13.01;78.09;102052.63;5010595;28;20026;-73
2023/06/03 05:33:32;;;;;;;8.00;4.35;;;;;;;13.07;76.32;102059.97;5013235;28;20068;-73
2023/06/03 05:35:58;;;;;;;11.07;3.85;;;;;;;13.12;76.26;102057.53;5013217;28;20392;-73
2023/06/03 05:38:24;;;;;;;6.38;3.33;;;;;;;13.15;75.63;102056.34;5013101;28;20037;-73
2023/06/03 05:40:50;;;;;;;11.05;3.90;;;;;;;13.22;74.60;102061.81;5013224;28;20040;-73
2023/06/03 05:43:16;;;;;;;10.18;3.67;;;;;;;13.26;73.61;102063.13;5013084;28;20392;-72
2023/06/03 05:45:42;;;;;;;11.00;4.15;;;;;;;13.27;72.97;102051.41;5013055;28;20033;-73
2023/06/03 05:48:07;;;;;;;3.95;2.67;;;;;;;13.37;73.58;102065.34;4994827;28;20099;-73
2023/06/03 05:50:38;;;;;;;12.85;3.30;;;;;;;13.45;72.04;102059.06;4995438;28;20026;-73
2023/06/03 05:53:04;;;;;;;6.88;3.40;;;;;;;13.48;71.20;102056.00;5012891;28;20064;-73
2023/06/03 05:55:30;;;;;;;9.13;3.95;;;;;;;13.84;70.49;102056.06;4995412;28;20037;-73
2023/06/03 05:57:56;;;;;;;7.03;3.70;;;;;;;14.74;69.38;102061.91;4995084;28;20052;-73
2023/06/03 06:00:21;;;;;;;4.25;3.15;;;;;;;16.06;62.39;102055.56;5012844;28;20042;-74
2023/06/03 06:02:47;;;;;;;5.70;3.00;;;;;;;16.36;61.28;102064.13;5012686;28;20026;-73
2023/06/03 06:05:13;;;;;;;5.10;3.00;;;;;;;16.42;59.40;102056.06;5012783;28;20030;-73
2023/06/03 06:07:38;;;;;;;7.00;3.13;;;;;;;16.17;58.87;102049.63;5012527;28;20028;-73
2023/06/03 06:10:04;;;;;;;6.22;2.90;;;;;;;15.69;60.96;102049.66;5012716;28;20037;-73
2023/06/03 06:12:30;;;;;;;5.80;2.58;;;;;;;15.29;61.43;102055.66;5012225;28;20045;-73
2023/06/03 06:14:55;;;;;;;7.07;3.70;;;;;;;15.04;62.28;102057.19;5012543;28;20040;-73
2023/06/03 06:17:20;;;;;;;4.40;2.40;;;;;;;14.83;61.86;102066.13;5012611;28;20486;-73
2023/06/03 06:19:47;;;;;;;6.80;3.08;;;;;;;14.72;62.37;102062.09;4994553;28;20781;-74
2023/06/03 06:22:12;;;;;;;6.38;2.85;;;;;;;14.64;61.99;102064.91;5012258;28;20044;-73
2023/06/03 06:24:37;;;;;;;9.23;3.40;;;;;;;14.64;64.26;102060.38;5012293;28;20386;-73
2023/06/03 06:27:04;;;;;;;12.60;2.90;;;;;;;14.65;64.04;102071.97;5012406;28;20026;-74
2023/06/03 06:29:30;;;;;;;5.15;2.53;;;;;;;14.60;62.66;102064.47;5012357;28;20037;-73
2023/06/03 06:31:55;;;;;;;10.07;3.70;;;;;;;14.61;64.19;102078.72;5012184;28;20033;-73
2023/06/03 06:34:21;;;;;;;5.82;3.05;;;;;;;14.65;63.78;102082.72;5012321;28;20030;-73
2023/06/03 06:36:52;;;;;;;5.15;2.88;;;;;;;14.69;63.65;102081.28;5012080;28;20022;-73
2023/06/03 06:39:40;;;;;;;5.53;2.60;;;;;;;14.72;63.71;102070.16;5012186;28;20044;-73
2023/06/03 06:42:10;;;;;;;10.10;3.63;;;;;;;14.71;62.02;102073.03;5004595;28;20049;-73
2023/06/03 06:44:50;;;;;;;6.72;3.53;;;;;;;14.75;62.21;102079.66;5011902;28;20535;-73
2023/06/03 06:47:26;;;;;;;4.60;2.70;;;;;;;14.78;61.44;102076.63;5012053;28;20088;-74
2023/06/03 06:49:57;;;;;;;6.88;3.33;;;;;;;14.86;61.91;102076.47;5011915;28;20037;-73
2023/06/03 06:52:23;;;;;;;6.28;2.38;;;;;;;14.86;60.84;102069.25;5011765;28;20439;-74
2023/06/03 06:54:49;;;;;;;7.32;2.60;;;;;;;14.99;62.72;102078.44;5011818;28;20096;-73
2023/06/03 06:57:23;;;;;;;4.00;2.20;;;;;;;15.00;59.39;102072.03;5011795;28;20046;-73
2023/06/03 06:59:52;;;;;;;3.53;2.40;;;;;;;15.10;60.20;102077.88;5011701;28;20026;-73
2023/06/03 07:02:18;;;;;;;7.82;2.75;;;;;;;15.18;59.27;102076.91;5011665;28;20025;-73
2023/06/03 07:04:43;;;;;;;6.45;2.33;;;;;;;15.27;59.66;102076.56;5011740;28;20116;-74
2023/06/03 07:07:09;;;;;;;6.35;2.53;;;;;;;15.41;59.69;102073.94;4994089;28;20113;-74
2023/06/03 07:09:34;;;;;;;5.63;2.92;;;;;;;15.42;57.85;102076.41;5011596;28;20543;-73
2023/06/03 07:12:00;;;;;;;4.60;2.63;;;;;;;15.43;58.56;102069.16;5011482;28;20034;-73
2023/06/03 07:14:29;;;;;;;8.70;2.72;;;;;;;15.49;58.11;102063.00;5011449;28;20033;-72
2023/06/03 07:16:54;;;;;;;6.60;2.58;;;;;;;15.56;56.11;102077.31;4993450;28;20385;-74
2023/06/03 07:19:20;;;;;;;5.72;2.65;;;;;;;15.60;56.61;102073.19;5011157;28;20058;-73
2023/06/03 07:21:45;;;;;;;2.42;1.90;;;;;;;15.70;56.76;102076.38;5011255;28;20042;-73
2023/06/03 07:24:11;;;;;;;9.05;2.38;;;;;;;15.78;56.06;102067.31;4993545;28;20155;-73
2023/06/03 07:26:38;;;;;;;3.28;1.92;;;;;;;15.84;55.71;102069.19;5011129;28;21049;-74
2023/06/03 07:29:04;;;;;;;4.30;2.35;;;;;;;15.88;54.63;102069.63;5011183;28;20026;-76
2023/06/03 07:31:35;;;;;;;6.28;2.15;;;;;;;15.94;54.76;102071.50;5011093;28;20037;-76
2023/06/03 07:34:01;;;;;;;3.85;2.05;;;;;;;16.02;54.17;102079.38;5011217;28;20030;-77
2023/06/03 07:36:26;;;;;;;3.70;2.10;;;;;;;16.03;52.89;102081.03;5010907;28;20048;-76
2023/06/03 07:39:06;;;;;;;7.22;2.42;;;;;;;16.11;53.14;102086.25;5010987;28;20105;-76
2023/06/03 07:41:44;;;;;;;5.03;2.13;;;;;;;16.22;54.29;102076.75;5011027;28;20042;-75
2023/06/03 07:44:11;;;;;;;4.07;2.30;;;;;;;16.35;52.96;102075.94;5010819;28;20053;-73
2023/06/03 07:46:39;;;;;;;5.32;2.30;;;;;;;16.46;52.19;102069.94;5010942;28;21102;-75
2023/06/03 07:49:16;;;;;;;3.95;2.10;;;;;;;16.50;49.95;102079.25;5010944;28;20507;-73
2023/06/03 07:51:47;;;;;;;3.97;2.00;;;;;;;16.53;49.21;102072.63;5010596;28;20507;-75
2023/06/03 07:54:13;;;;;;;2.47;1.38;;;;;;;16.65;50.07;102071.81;4992785;28;20053;-75
2023/06/03 07:56:40;;;;;;;4.10;2.10;;;;;;;16.69;48.30;102063.31;5010647;28;20041;-75
2023/06/03 07:59:11;;;;;;;3.47;1.95;;;;;;;16.80;48.30;102079.72;4992967;28;20044;-75
2023/06/03 08:01:38;;;;;;;5.68;2.28;;;;;;;16.99;45.94;102083.44;5010564;28;20571;-75
2023/06/03 08:04:20;;;;;;;2.50;1.65;;;;;;;17.02;45.31;102093.78;5010536;28;20034;-76
2023/06/03 08:06:47;;;;;;;3.05;1.83;;;;;;;17.06;46.15;102084.25;5010139;28;20065;-75
2023/06/03 08:09:27;;;;;;;2.40;1.83;;;;;;;17.19;46.23;102090.69;5010059;28;20030;-75
2023/06/03 08:11:53;;;;;;;3.03;1.50;;;;;;;17.30;44.35;102090.03;5010041;28;20030;-75
2023/06/03 08:14:21;;;;;;;4.72;1.60;;;;;;;17.94;43.70;102091.06;4992128;28;20061;-75
2023/06/03 08:16:47;;;;;;;1.95;1.65;;;;;;;20.08;38.17;102088.09;5009569;28;20038;-75
2023/06/03 08:19:13;;;;;;;3.30;1.48;;;;;;;21.82;35.84;102086.72;5009613;28;20791;-76
2023/06/03 08:21:39;;;;;;;7.15;1.85;;;;;;;23.47;32.74;102070.09;5009879;28;20076;-76
2023/06/03 08:24:05;;;;;;;20.27;3.42;;;;;;;24.86;30.44;102084.06;4992068;28;20049;-76
2023/06/03 08:26:30;;;;;;;4.13;1.95;;;;;;;25.23;29.21;102071.44;5009882;28;20037;-77
2023/06/03 08:28:56;;;;;;;1.50;1.40;;;;;;;26.26;27.66;102075.34;5009795;28;20485;-76
2023/06/03 08:31:21;;;;;;;3.67;1.65;;;;;;;26.88;26.27;102079.69;5010084;28;20044;-76
2023/06/03 08:33:46;;;;;;;4.40;1.80;;;;;;;26.98;24.91;102074.19;5009732;28;20034;-78
2023/06/03 08:36:12;;;;;;;2.00;1.38;;;;;;;27.57;25.29;102074.56;4992105;28;20109;-75
2023/06/03 08:38:40;;;;;;;8.23;2.30;;;;;;;27.63;24.67;102065.19;5009957;28;20030;-77
2023/06/03 08:41:06;;;;;;;3.65;1.50;;;;;;;27.34;24.09;102065.88;5009730;28;20038;-77
2023/06/03 08:43:42;;;;;;;2.95;1.40;;;;;;;27.99;25.96;102068.59;5009490;28;20029;-77
2023/06/03 08:46:24;;;;;;;2.05;1.45;;;;;;;28.65;24.70;102072.72;5009501;28;20461;-79
2023/06/03 08:48:55;;;;;;;5.28;1.75;;;;;;;27.99;23.92;102068.59;5009572;28;20022;-77
2023/06/03 08:51:23;;;;;;;3.33;1.27;;;;;;;28.13;23.14;102064.06;5008406;28;20277;-75
2023/06/03 08:53:50;;;;;;;3.75;1.30;;;;;;;28.42;21.52;102064.09;5001371;28;20485;-75
2023/06/03 08:56:19;;;;;;;3.80;1.15;;;;;;;28.72;22.46;102055.94;5003393;28;20033;-72
2023/06/03 08:58:54;;;;;;;3.10;1.40;;;;;;;28.55;23.01;102070.88;5002345;28;20254;-79
2023/06/03 09:01:26;;;;;;;5.75;1.63;;;;;;;27.29;23.09;102058.50;4981809;28;20034;-73
2023/06/03 09:03:53;;;;;;;4.80;1.45;;;;;;;25.52;25.56;102069.13;5001399;28;20026;-73
2023/06/03 09:06:19;;;;;;;6.55;1.35;;;;;;;23.94;26.71;102072.31;4984519;28;20476;-70
2023/06/03 09:08:49;;;;;;;4.30;1.38;;;;;;;22.52;29.13;102061.13;5002787;28;20111;-73
2023/06/03 09:11:15;;;;;;;7.18;2.28;;;;;;;21.39;30.62;102072.56;5003087;28;20425;-74
2023/06/03 09:13:41;;;;;;;3.65;2.15;;;;;;;20.52;32.55;102056.97;4985382;28;20037;-74
2023/06/03 09:16:09;;;;;;;8.93;2.58;;;;;;;20.20;32.78;102063.72;5003292;28;20026;-75
2023/06/03 09:18:35;;;;;;;5.05;1.40;;;;;;;19.85;33.22;102070.66;5002942;28;20026;-75
2023/06/03 09:21:00;;;;;;;2.97;1.50;;;;;;;19.68;33.76;102064.25;5003757;28;20084;-75
2023/06/03 09:23:27;;;;;;;7.30;1.63;;;;;;;19.60;33.54;102068.06;5003360;28;20033;-75
2023/06/03 09:25:53;;;;;;;1.65;1.52;;;;;;;19.57;34.40;102060.41;5003907;28;20495;-75
2023/06/03 09:28:18;;;;;;;1.35;1.10;;;;;;;19.49;32.62;102060.69;5003225;28;20113;-76
2023/06/03 09:30:44;;;;;;;2.72;2.05;;;;;;;19.39;33.84;102049.59;5003964;28;20117;-74
2023/06/03 09:33:09;;;;;;;3.90;1.35;;;;;;;19.39;34.73;102049.59;5003223;28;20420;-75
2023/06/03 09:35:35;;;;;;;4.40;1.05;;;;;;;19.44;32.54;102055.97;5003581;28;20037;-74
2023/06/03 09:38:04;;;;;;;3.28;1.30;;;;;;;19.38;33.45;102053.31;5003042;28;20018;-74
2023/06/03 09:40:31;;;;;;;2.40;1.08;;;;;;;19.37;32.17;102046.28;4986102;28;20034;-76
2023/06/03 09:42:57;;;;;;;1.65;1.10;;;;;;;19.38;32.07;102047.91;5003349;28;20045;-76
2023/06/03 09:45:27;;;;;;;1.70;0.98;;;;;;;19.47;32.50;102052.00;5003296;28;20049;-75
2023/06/03 09:47:53;;;;;;;3.05;1.20;;;;;;;19.53;30.92;102050.25;5002806;28;20018;-77
2023/06/03 09:50:20;;;;;;;2.78;1.70;;;;;;;19.49;32.01;102022.81;5003171;28;20030;-76
2023/06/03 09:52:46;;;;;;;1.52;0.98;;;;;;;19.62;31.02;102057.00;5003330;28;20835;-76
2023/06/03 09:55:13;;;;;;;1.00;0.90;;;;;;;19.62;31.73;102051.56;4985787;28;20122;-75
2023/06/03 09:57:40;;;;;;;2.90;1.25;;;;;;;19.76;31.81;102039.56;4985126;28;20064;-76
2023/06/03 10:00:16;;;;;;;2.42;1.27;;;;;;;19.93;32.50;102043.25;5003059;28;20029;-76
2023/06/03 10:02:43;;;;;;;2.75;0.93;;;;;;;19.98;30.77;102041.75;4992919;28;20428;-76
2023/06/03 10:05:30;;;;;;;5.82;0.90;;;;;;;20.10;30.96;102037.22;5002169;28;20033;-75
2023/06/03 10:07:56;;;;;;;2.95;1.20;;;;;;;20.11;30.64;102047.81;4984054;28;20032;-72
2023/06/03 10:10:22;;;;;;;3.20;1.25;;;;;;;20.06;30.81;102042.25;5001513;28;20223;-73
2023/06/03 10:12:49;;;;;;;1.42;0.80;;;;;;;20.13;29.13;102048.41;5001926;28;20377;-73
2023/06/03 10:15:37;;;;;;;1.25;1.00;;;;;;;20.18;31.14;102049.63;5001875;28;20057;-81
2023/06/03 10:18:06;;;;;;;1.15;1.00;;;;;;;20.19;29.26;102057.50;5005466;28;20056;-74
2023/06/03 10:20:40;;;;;;;3.38;1.10;;;;;;;20.13;30.71;102048.41;5006051;28;20626;-75
2023/06/03 10:23:10;;;;;;;7.65;1.33;;;;;;;20.07;30.02;102052.06;5006432;28;20721;-75
2023/06/03 10:25:42;;;;;;;2.42;0.82;;;;;;;20.28;31.92;102042.56;5006661;28;20030;-73
2023/06/03 10:28:09;;;;;;;1.05;0.73;;;;;;;20.43;29.42;102049.41;5005894;28;20939;-73
2023/06/03 10:30:35;;;;;;;2.83;1.05;;;;;;;20.37;29.46;102034.91;5006575;28;20033;-72
2023/06/03 10:33:06;;;;;;;4.38;1.25;;;;;;;20.35;27.45;102045.16;5006355;28;20447;-74
2023/06/03 10:35:34;;;;;;;6.10;1.20;;;;;;;20.20;27.86;102047.47;5006287;28;20092;-73
2023/06/03 10:38:01;;;;;;;2.25;0.85;;;;;;;20.08;27.79;102037.44;5006033;28;20065;-73
2023/06/03 10:40:27;;;;;;;10.98;2.65;;;;;;;20.09;29.63;102046.38;5006325;28;20124;-78
2023/06/03 10:42:54;;;;;;;2.97;0.60;;;;;;;20.31;29.60;102043.97;5005947;28;20631;-76
2023/06/03 10:45:20;;;;;;;2.40;0.90;;;;;;;20.38;27.84;102039.25;5006565;28;20044;-72
2023/06/03 10:47:48;;;;;;;2.35;0.95;;;;;;;20.48;28.97;102042.22;5005437;28;20493;-77
2023/06/03 10:50:48;;;;;;;1.95;0.90;;;;;;;20.57;29.14;102048.19;5005946;28;20485;-75
2023/06/03 10:53:39;;;;;;;5.93;1.13;;;;;;;20.60;28.90;102055.03;5005645;28;20025;-75
2023/06/03 10:56:20;;;;;;;1.95;1.00;;;;;;;20.66;29.42;102038.63;4994818;28;20049;-74
2023/06/03 10:58:47;;;;;;;4.03;1.10;;;;;;;20.53;28.66;102041.53;5004033;28;20030;-75
2023/06/03 11:01:12;;;;;;;1.55;0.80;;;;;;;20.56;28.45;102039.19;5005164;28;20968;-72
2023/06/03 11:03:53;;;;;;;0.82;0.82;;;;;;;20.66;30.56;102041.34;5005544;28;20050;-76
2023/06/03 11:06:18;;;;;;;2.05;0.82;;;;;;;20.73;30.05;102036.63;5005525;28;20029;-76
2023/06/03 11:09:12;;;;;;;3.03;0.97;;;;;;;20.78;30.44;102027.81;5005244;28;20014;-76
2023/06/03 11:11:41;;;;;;;1.45;0.98;;;;;;;20.99;29.15;102038.03;5005427;28;20330;-76
2023/06/03 11:14:07;;;;;;;2.45;1.17;;;;;;;21.09;28.74;102047.44;4987678;28;20068;-76
2023/06/03 11:16:57;;;;;;;1.13;0.90;;;;;;;21.07;29.76;102042.28;5003939;28;20032;-77
2023/06/03 11:19:33;;;;;;;3.25;1.20;;;;;;;21.06;29.06;102039.78;5004725;28;20048;-77
2023/06/03 11:21:59;;;;;;;1.90;0.98;;;;;;;21.04;27.67;102034.63;5005361;28;20128;-78
2023/06/03 11:24:44;;;;;;;1.50;0.85;;;;;;;21.14;27.92;102034.00;4987065;28;20483;-77
2023/06/03 11:27:10;;;;;;;2.22;1.20;;;;;;;21.13;26.96;102040.50;5004720;28;20018;-77